METAR and TAF’s


Available data for KLBB from the past 2 hours
LUBBOCK, TX
Metar
KLBB 222153Z 33018G23KT 10SM FEW250 12/M16 A3008 RMK AO2 SLP178 T01221161

21:53 UTC

Wind: 330° 18kt

Visibility: 10 SM

Sky: FEW 25000 ft

Temp: 12 deg C / 53.6 deg F

Dewpoint: -16 deg C / 3.2 deg F

Pressure: 30.08 inHg

TAF
KLBB 221720Z 2218/2318 32013KT P6SM SKC FM222300 30006KT P6SM SKC
Pireps (2)
KLBB UA /OV 50NM NW KLBB/TM 2028/FL065/TP C206/TB SEVERE TURBULANCE
KLBB UA /OV 35NM EAST KLBB/TM 2010/FL100/TP C525/TB CONTINOUS MODERATE TURBULANCE BELOW 100
Available data for KCVN from the past 2 hours
CLOVIS MUNI, NM
Metar
KCVN 222156Z AUTO 31012KT 10SM CLR 10/M19 A3010 RMK AO2 SLP206 T01001194

21:56 UTC

Wind: 310° 12kt

Visibility: 10 SM

Sky:

Temp: 10 deg C / 50 deg F

Dewpoint: -19 deg C / -2.2 deg F

Pressure: 30.1 inHg